HTZA/ZNZ METAR and TAF weather

Enter ICAO airport designator
Station Type Date Time Source
HTZA METAR 2021/02/28 03:00 UTC NOAA

HTZA 280300Z 00000KT 9999 FEW012 BKN070 26/24 Q1009 NOSIG


Station Type Date Time Source
HTZA Decoded METAR 2021/02/28 03:00 UTC NOAA

Zanzibar / Kisauni, Tanzania (HTZA) 06-13S 039-13E 15M
Feb 27, 2021 - 10:00 PM EST / 2021.02.28 0300 UTC
Wind: Calm:0
Visibility: greater than 7 mile(s):0
Sky conditions: mostly cloudy
Temperature: 78 F (26 C)
Dew Point: 75 F (24 C)
Relative Humidity: 88%
Pressure (altimeter): 29.80 in. Hg (1009 hPa)
ob: HTZA 280300Z 00000KT 9999 FEW012 BKN070 26/24 Q1009 NOSIG
cycle: 3

Station Type Date Time Source
HTZA TAF 2021/02/28 00:45 UTC NOAA

HTZA 272300Z 2800/2824 00000KT 9999 BKN014
BECMG 2803/2805 33010KT
BECMG 2810/2812 08010KT FEW022
BECMG 2818/2820 00000KT

Example: see airport list